createdAt,value
2017-11-10T00:01:53.333Z,21.76
2017-11-10T00:03:56.630Z,21.76
2017-11-10T00:05:59.945Z,21.75
2017-11-10T00:08:03.341Z,21.75
2017-11-10T00:10:06.631Z,21.75
2017-11-10T00:12:09.950Z,21.75
2017-11-10T00:14:13.247Z,21.76
2017-11-10T00:16:16.535Z,21.75
2017-11-10T00:18:19.864Z,21.74
2017-11-10T00:20:23.191Z,21.75
2017-11-10T00:22:26.469Z,21.74
2017-11-10T00:24:29.790Z,21.74
2017-11-10T00:26:33.147Z,21.74
2017-11-10T00:28:36.442Z,21.74
2017-11-10T00:30:39.749Z,21.74
2017-11-10T00:32:43.121Z,21.73
2017-11-10T00:34:46.409Z,21.74
2017-11-10T00:36:51.137Z,21.74
2017-11-10T00:38:54.529Z,21.74
2017-11-10T00:40:57.818Z,21.73
2017-11-10T00:43:01.197Z,21.74
2017-11-10T00:45:04.502Z,21.73
2017-11-10T00:47:07.787Z,21.73
2017-11-10T00:49:11.101Z,21.73
2017-11-10T00:51:14.389Z,21.73
2017-11-10T00:53:17.750Z,21.73
2017-11-10T00:55:21.149Z,21.72
2017-11-10T00:57:24.538Z,21.72
2017-11-10T00:59:28.844Z,21.73
2017-11-10T01:01:32.169Z,21.72
2017-11-10T01:03:35.635Z,21.72
2017-11-10T01:05:38.926Z,21.72
2017-11-10T01:07:42.321Z,21.71
2017-11-10T01:09:45.612Z,21.71
2017-11-10T01:11:48.901Z,21.71
2017-11-10T01:13:52.247Z,21.71
2017-11-10T01:15:55.521Z,21.71
2017-11-10T01:17:58.809Z,21.70
2017-11-10T01:20:02.160Z,21.71
2017-11-10T01:22:05.541Z,21.70
2017-11-10T01:24:08.829Z,21.71
2017-11-10T01:26:12.154Z,21.70
2017-11-10T01:28:15.514Z,21.70
2017-11-10T01:30:18.806Z,21.69
2017-11-10T01:32:22.201Z,21.69
2017-11-10T01:34:25.595Z,21.70
2017-11-10T01:36:28.881Z,21.70
2017-11-10T01:38:32.210Z,21.70
2017-11-10T01:40:35.561Z,21.70
2017-11-10T01:42:38.842Z,21.70
2017-11-10T01:44:42.163Z,21.69
2017-11-10T01:46:45.497Z,21.69
2017-11-10T01:48:51.858Z,21.69
2017-11-10T01:50:55.286Z,21.68
2017-11-10T01:52:58.585Z,21.68
2017-11-10T01:55:01.961Z,21.68
2017-11-10T01:57:05.286Z,21.68
2017-11-10T01:59:08.577Z,21.68
2017-11-10T02:01:11.934Z,21.68
2017-11-10T02:03:15.286Z,21.68
2017-11-10T02:05:18.769Z,21.67
2017-11-10T02:07:22.064Z,21.67
2017-11-10T02:09:25.398Z,21.66
2017-11-10T02:11:28.800Z,21.67
2017-11-10T02:13:32.162Z,21.67
2017-11-10T02:15:35.498Z,21.66
2017-11-10T02:17:38.863Z,21.67
2017-11-10T02:19:42.151Z,21.67
2017-11-10T02:21:45.471Z,21.66
2017-11-10T02:23:48.770Z,21.66
2017-11-10T02:25:52.068Z,21.67
2017-11-10T02:27:55.415Z,21.66
2017-11-10T02:29:58.755Z,21.66
2017-11-10T02:32:02.100Z,21.66
2017-11-10T02:34:05.469Z,21.66
2017-11-10T02:36:08.772Z,21.66
2017-11-10T02:38:12.109Z,21.66
2017-11-10T02:40:15.484Z,21.66
2017-11-10T02:42:18.809Z,21.66
2017-11-10T02:44:22.108Z,21.66
2017-11-10T02:46:25.534Z,21.66
2017-11-10T02:48:28.830Z,21.66
2017-11-10T02:50:32.130Z,21.65
2017-11-10T02:52:35.503Z,21.65
2017-11-10T02:54:38.890Z,21.65
2017-11-10T02:56:42.256Z,21.65
2017-11-10T02:58:45.665Z,21.65
2017-11-10T03:00:49.064Z,21.65
2017-11-10T03:02:52.356Z,21.64
2017-11-10T03:04:55.676Z,21.65
2017-11-10T03:06:59.104Z,21.65
2017-11-10T03:09:02.393Z,21.64
2017-11-10T03:11:05.710Z,21.64
2017-11-10T03:13:09.010Z,21.64
2017-11-10T03:15:12.306Z,21.64
2017-11-10T03:17:15.698Z,21.64
2017-11-10T03:19:18.989Z,21.63
2017-11-10T03:21:22.350Z,21.63
2017-11-10T03:23:25.761Z,21.63
2017-11-10T03:25:29.060Z,21.63
2017-11-10T03:27:32.340Z,21.63
2017-11-10T03:29:35.653Z,21.63
2017-11-10T03:31:39.024Z,21.63
2017-11-10T03:33:42.315Z,21.62
2017-11-10T03:35:45.702Z,21.63
2017-11-10T03:37:48.993Z,21.62
2017-11-10T03:39:52.391Z,21.62
2017-11-10T03:41:55.697Z,21.63
2017-11-10T03:43:59.024Z,21.63
2017-11-10T03:46:02.299Z,21.63
2017-11-10T03:48:05.610Z,21.63
2017-11-10T03:50:08.902Z,21.63
2017-11-10T03:52:12.198Z,21.62
2017-11-10T03:54:15.606Z,21.62
2017-11-10T03:56:18.901Z,21.62
2017-11-10T03:58:22.229Z,21.62
2017-11-10T04:00:25.547Z,21.62
2017-11-10T04:02:28.846Z,21.62
2017-11-10T04:04:32.137Z,21.61
2017-11-10T04:06:35.457Z,21.61
2017-11-10T04:08:38.909Z,21.62
2017-11-10T04:10:42.276Z,21.62
2017-11-10T04:12:45.583Z,21.61
2017-11-10T04:14:48.917Z,21.61
2017-11-10T04:16:52.205Z,21.61
2017-11-10T04:18:55.526Z,21.61
2017-11-10T04:20:58.824Z,21.61
2017-11-10T04:23:02.137Z,21.60
2017-11-10T04:25:05.434Z,21.61
2017-11-10T04:27:08.763Z,21.61
2017-11-10T04:29:12.144Z,21.61
2017-11-10T04:31:15.537Z,21.61
2017-11-10T04:33:18.829Z,21.61
2017-11-10T04:35:22.213Z,21.60
2017-11-10T04:37:25.537Z,21.61
2017-11-10T04:39:28.862Z,21.60
2017-11-10T04:41:32.137Z,21.60
2017-11-10T04:43:35.476Z,21.60
2017-11-10T04:45:38.770Z,21.61
2017-11-10T04:47:42.066Z,21.60
2017-11-10T04:49:45.372Z,21.61
2017-11-10T04:51:48.667Z,21.60
2017-11-10T04:53:52.024Z,21.60
2017-11-10T04:55:55.418Z,21.59
2017-11-10T04:57:58.717Z,21.60
2017-11-10T05:00:02.005Z,21.60
2017-11-10T05:02:05.329Z,21.59
2017-11-10T05:04:08.621Z,21.59
2017-11-10T05:06:11.917Z,21.60
2017-11-10T05:08:15.234Z,21.60
2017-11-10T05:10:18.748Z,21.59
2017-11-10T05:12:22.038Z,21.59
2017-11-10T05:14:25.445Z,21.59
2017-11-10T05:16:28.786Z,21.59
2017-11-10T05:18:32.082Z,21.59
2017-11-10T05:20:35.397Z,21.59
2017-11-10T05:22:38.702Z,21.59
2017-11-10T05:24:42.050Z,21.59
2017-11-10T05:26:45.492Z,21.60
2017-11-10T05:28:48.792Z,21.59
2017-11-10T05:30:52.094Z,21.59
2017-11-10T05:32:55.409Z,21.59
2017-11-10T05:34:58.700Z,21.58
2017-11-10T05:37:02.090Z,21.58
2017-11-10T05:39:05.395Z,21.58
2017-11-10T05:41:08.690Z,21.58
2017-11-10T05:43:11.990Z,21.58
2017-11-10T05:45:15.328Z,21.58
2017-11-10T05:47:18.637Z,21.58
2017-11-10T05:49:21.965Z,21.58
2017-11-10T05:51:25.562Z,21.58
2017-11-10T05:53:28.951Z,21.58
2017-11-10T05:55:32.236Z,21.58
2017-11-10T05:57:35.558Z,21.58
2017-11-10T05:59:38.858Z,21.58
2017-11-10T06:01:42.152Z,21.58
2017-11-10T06:03:45.477Z,21.57
2017-11-10T06:05:48.769Z,21.56
2017-11-10T06:07:52.057Z,21.56
2017-11-10T06:09:55.369Z,21.56
2017-11-10T06:11:58.930Z,21.57
2017-11-10T06:14:02.246Z,21.56
2017-11-10T06:16:06.549Z,21.56
2017-11-10T06:18:09.847Z,21.57
2017-11-10T06:20:13.154Z,21.56
2017-11-10T06:22:16.502Z,21.57
2017-11-10T06:24:19.778Z,21.57
2017-11-10T06:26:23.081Z,21.56
2017-11-10T06:28:26.386Z,21.56
2017-11-10T06:30:29.674Z,21.57
2017-11-10T06:32:32.970Z,21.56
2017-11-10T06:34:36.372Z,21.56
2017-11-10T06:36:39.770Z,21.56
2017-11-10T06:38:43.068Z,21.56
2017-11-10T06:40:46.377Z,21.56
2017-11-10T06:42:49.701Z,21.56
2017-11-10T06:44:53.049Z,21.56
2017-11-10T06:46:56.379Z,21.55
2017-11-10T06:48:59.675Z,21.56
2017-11-10T06:51:03.002Z,21.56
2017-11-10T06:53:06.418Z,21.55
2017-11-10T06:55:09.713Z,21.55
2017-11-10T06:57:12.993Z,21.55
2017-11-10T06:59:16.325Z,21.56
2017-11-10T07:01:19.669Z,21.55
2017-11-10T07:03:23.045Z,21.56
2017-11-10T07:05:26.385Z,21.55
2017-11-10T07:07:29.684Z,21.55
2017-11-10T07:09:32.983Z,21.56
2017-11-10T07:11:36.308Z,21.56
2017-11-10T07:13:39.704Z,21.55
2017-11-10T07:15:42.997Z,21.56
2017-11-10T07:17:46.394Z,21.55
2017-11-10T07:19:49.714Z,21.55
2017-11-10T07:21:53.110Z,21.56
2017-11-10T07:23:56.664Z,21.56
2017-11-10T07:26:00.041Z,21.56
2017-11-10T07:28:03.404Z,21.56
2017-11-10T07:30:06.706Z,21.57
2017-11-10T07:32:10.022Z,21.57
2017-11-10T07:34:13.317Z,21.57
2017-11-10T07:36:16.643Z,21.58
2017-11-10T07:38:19.970Z,21.59
2017-11-10T07:40:23.289Z,21.59
2017-11-10T07:42:26.876Z,21.59
2017-11-10T07:44:30.269Z,21.60
2017-11-10T07:46:33.557Z,21.60
2017-11-10T07:48:37.213Z,21.60
2017-11-10T07:50:40.512Z,21.61
2017-11-10T07:52:43.833Z,21.61
2017-11-10T07:54:47.217Z,21.61
2017-11-10T07:56:50.509Z,21.61
2017-11-10T07:58:53.906Z,21.62
2017-11-10T08:00:57.297Z,21.62
2017-11-10T08:03:00.685Z,21.62
2017-11-10T08:05:04.097Z,21.62
2017-11-10T08:07:07.413Z,21.62
2017-11-10T08:09:10.781Z,21.62
2017-11-10T08:11:14.154Z,21.62
2017-11-10T08:13:17.506Z,21.62
2017-11-10T08:15:20.834Z,21.62
2017-11-10T08:17:24.264Z,21.62
2017-11-10T08:19:27.582Z,21.63
2017-11-10T08:21:30.880Z,21.62
2017-11-10T08:23:34.201Z,21.62
2017-11-10T08:25:37.513Z,21.62
2017-11-10T08:27:40.810Z,21.62
2017-11-10T08:29:44.099Z,21.62
2017-11-10T08:31:47.505Z,21.62
2017-11-10T08:33:50.846Z,21.61
2017-11-10T08:35:54.145Z,21.62
2017-11-10T08:37:57.500Z,21.62
2017-11-10T08:40:00.783Z,21.62
2017-11-10T08:42:04.102Z,21.62
2017-11-10T08:44:07.501Z,21.62
2017-11-10T08:46:10.885Z,21.62
2017-11-10T08:48:14.289Z,21.62
2017-11-10T08:50:17.602Z,21.62
2017-11-10T08:52:20.926Z,21.62
2017-11-10T08:54:24.250Z,21.62
2017-11-10T08:56:27.564Z,21.62
2017-11-10T08:58:30.896Z,21.63
2017-11-10T09:00:34.257Z,21.64
2017-11-10T09:02:37.541Z,21.65
2017-11-10T09:04:40.901Z,21.66
2017-11-10T09:06:44.222Z,21.67
2017-11-10T09:08:47.573Z,21.69
2017-11-10T09:10:50.874Z,21.70
2017-11-10T09:12:54.165Z,21.72
2017-11-10T09:14:57.514Z,21.72
2017-11-10T09:17:01.009Z,21.74
2017-11-10T09:19:04.404Z,21.76
2017-11-10T09:21:07.706Z,21.78
2017-11-10T09:23:10.998Z,21.79
2017-11-10T09:25:14.285Z,21.80
2017-11-10T09:27:17.598Z,21.81
2017-11-10T09:32:07.582Z,21.84
2017-11-10T09:34:19.482Z,21.85
2017-11-10T09:36:28.497Z,21.85
2017-11-10T09:38:40.345Z,21.85
2017-11-10T09:43:42.536Z,21.86
2017-11-10T09:45:51.597Z,21.86
2017-11-10T09:48:00.401Z,21.87
2017-11-10T09:50:09.206Z,21.87
2017-11-10T09:52:18.245Z,21.87
2017-11-10T09:57:11.557Z,21.89
2017-11-10T09:59:14.841Z,21.89
2017-11-10T10:01:18.531Z,21.89
2017-11-10T10:06:02.558Z,21.91
2017-11-10T10:08:11.514Z,21.92
2017-11-10T10:10:20.429Z,21.92
2017-11-10T10:12:23.733Z,21.92
2017-11-10T10:14:32.575Z,21.93
2017-11-10T10:16:39.797Z,21.94
2017-11-10T10:18:49.830Z,21.94
2017-11-10T10:23:37.209Z,21.97
2017-11-10T10:25:40.514Z,21.98
2017-11-10T10:27:43.833Z,21.98
2017-11-10T10:29:47.138Z,22.00
2017-11-10T10:31:50.461Z,22.00
2017-11-10T10:33:53.862Z,22.01
2017-11-10T10:35:57.144Z,22.02
2017-11-10T10:38:00.448Z,22.03
2017-11-10T10:40:03.764Z,22.03
2017-11-10T10:42:07.055Z,22.04
2017-11-10T10:44:10.345Z,22.05
2017-11-10T10:46:13.658Z,22.06
2017-11-10T10:48:16.959Z,22.07
2017-11-10T10:50:20.283Z,22.08
2017-11-10T10:52:23.604Z,22.08
2017-11-10T10:54:27.178Z,22.09
2017-11-10T10:56:30.859Z,22.09
2017-11-10T10:58:34.931Z,22.09
2017-11-10T11:00:38.233Z,22.08
2017-11-10T11:02:41.520Z,22.08
2017-11-10T11:04:44.853Z,22.07
2017-11-10T11:06:48.303Z,22.06
2017-11-10T11:08:51.583Z,22.05
2017-11-10T11:10:54.931Z,22.05
2017-11-10T11:12:58.218Z,22.05
2017-11-10T11:15:01.512Z,22.05
2017-11-10T11:17:04.821Z,22.04
2017-11-10T11:19:08.235Z,22.04
2017-11-10T11:21:11.624Z,22.04
2017-11-10T11:23:14.930Z,22.03
2017-11-10T11:25:18.219Z,22.03
2017-11-10T11:27:21.628Z,22.02
2017-11-10T11:29:24.977Z,22.02
2017-11-10T11:31:28.265Z,22.02
2017-11-10T11:33:31.599Z,22.02
2017-11-10T11:35:34.922Z,22.01
2017-11-10T11:37:38.214Z,22.02
2017-11-10T11:39:41.501Z,22.01
2017-11-10T11:41:44.835Z,22.00
2017-11-10T11:43:48.122Z,22.00
2017-11-10T11:45:51.441Z,22.00
2017-11-10T11:47:54.771Z,21.99
2017-11-10T11:49:58.063Z,21.99
2017-11-10T11:52:01.364Z,21.98
2017-11-10T11:54:04.699Z,21.99
2017-11-10T11:56:08.006Z,21.98
2017-11-10T11:58:11.326Z,21.98
2017-11-10T12:00:14.736Z,21.97
2017-11-10T12:02:18.006Z,21.97
2017-11-10T12:04:21.369Z,21.96
2017-11-10T12:06:24.703Z,21.96
2017-11-10T12:08:27.977Z,21.96
2017-11-10T12:10:31.327Z,21.95
2017-11-10T12:12:34.646Z,21.95
2017-11-10T12:14:38.068Z,21.95
2017-11-10T12:16:41.381Z,21.94
2017-11-10T12:18:44.825Z,21.94
2017-11-10T12:20:48.268Z,21.94
2017-11-10T12:22:51.635Z,21.94
2017-11-10T12:24:55.017Z,21.94
2017-11-10T12:26:58.311Z,21.94
2017-11-10T12:29:01.662Z,21.94
2017-11-10T12:31:04.995Z,21.94
2017-11-10T12:33:08.392Z,21.93
2017-11-10T12:35:11.661Z,21.93
2017-11-10T12:37:14.986Z,21.93
2017-11-10T12:39:18.360Z,21.93
2017-11-10T12:41:21.785Z,21.93
2017-11-10T12:43:25.172Z,21.92
2017-11-10T12:45:28.469Z,21.93
2017-11-10T12:47:31.757Z,21.93
2017-11-10T12:49:35.069Z,21.92
2017-11-10T12:51:38.368Z,21.92
2017-11-10T12:53:41.657Z,21.92
2017-11-10T12:55:45.034Z,21.93
2017-11-10T12:57:48.319Z,21.93
2017-11-10T12:59:51.664Z,21.92
2017-11-10T13:01:54.994Z,21.92
2017-11-10T13:03:58.297Z,21.92
2017-11-10T13:06:01.592Z,21.92
2017-11-10T13:08:04.893Z,21.92
2017-11-10T13:10:08.247Z,21.93
2017-11-10T13:12:11.928Z,21.92
2017-11-10T13:14:15.336Z,21.92
2017-11-10T13:16:18.673Z,21.91
2017-11-10T13:18:21.985Z,21.91
2017-11-10T13:20:25.682Z,21.91
2017-11-10T13:22:29.078Z,21.91
2017-11-10T13:24:32.380Z,21.91
2017-11-10T13:26:35.749Z,21.91
2017-11-10T13:28:39.056Z,21.91
2017-11-10T13:30:42.339Z,21.92
2017-11-10T13:32:45.642Z,21.91
2017-11-10T13:34:48.938Z,21.91
2017-11-10T13:36:52.250Z,21.91
2017-11-10T13:38:55.590Z,21.92
2017-11-10T13:40:58.937Z,21.91
2017-11-10T13:43:02.235Z,21.91
2017-11-10T13:45:05.610Z,21.92
2017-11-10T13:47:08.907Z,21.92
2017-11-10T13:49:12.289Z,21.92
2017-11-10T13:51:15.635Z,21.92
2017-11-10T13:53:18.937Z,21.92
2017-11-10T13:55:22.253Z,21.91
2017-11-10T13:57:25.657Z,21.92
2017-11-10T13:59:29.039Z,21.91
2017-11-10T14:01:32.331Z,21.92
2017-11-10T14:03:35.644Z,21.91
2017-11-10T14:05:38.946Z,21.91
2017-11-10T14:07:42.256Z,21.91
2017-11-10T14:09:45.575Z,21.90
2017-11-10T14:11:48.884Z,21.90
2017-11-10T14:13:52.258Z,21.89
2017-11-10T14:15:55.571Z,21.89
2017-11-10T14:17:58.876Z,21.90
2017-11-10T14:20:02.166Z,21.88
2017-11-10T14:22:05.480Z,21.89
2017-11-10T14:24:08.887Z,21.89
2017-11-10T14:26:12.181Z,21.88
2017-11-10T14:28:15.597Z,21.88
2017-11-10T14:30:18.891Z,21.87
2017-11-10T14:32:22.186Z,21.87
2017-11-10T14:34:25.517Z,21.87
2017-11-10T14:36:28.804Z,21.86
2017-11-10T14:38:32.094Z,21.86
2017-11-10T14:40:35.487Z,21.86
2017-11-10T14:42:38.793Z,21.85
2017-11-10T14:44:42.186Z,21.85
2017-11-10T14:46:45.505Z,21.85
2017-11-10T14:48:48.801Z,21.84
2017-11-10T14:50:52.101Z,21.85
2017-11-10T14:52:55.544Z,21.83
2017-11-10T14:54:58.821Z,21.84
2017-11-10T14:57:02.121Z,21.84
2017-11-10T14:59:05.448Z,21.83
2017-11-10T15:01:08.866Z,21.83
2017-11-10T15:03:12.162Z,21.82
2017-11-10T15:05:15.538Z,21.82
2017-11-10T15:07:18.882Z,21.82
2017-11-10T15:09:22.158Z,21.82
2017-11-10T15:11:25.480Z,21.81
2017-11-10T15:13:28.777Z,21.81
2017-11-10T15:15:32.105Z,21.81
2017-11-10T15:17:35.444Z,21.80
2017-11-10T15:19:38.819Z,21.80
2017-11-10T15:21:42.104Z,21.80
2017-11-10T15:23:45.421Z,21.80
2017-11-10T15:25:49.202Z,21.80
2017-11-10T15:27:52.478Z,21.80
2017-11-10T15:29:55.837Z,21.79
2017-11-10T15:31:59.274Z,21.79
2017-11-10T15:34:02.574Z,21.79
2017-11-10T15:36:05.891Z,21.79
2017-11-10T15:38:09.177Z,21.78
2017-11-10T15:40:12.574Z,21.78
2017-11-10T15:42:15.882Z,21.78
2017-11-10T15:44:19.214Z,21.78
2017-11-10T15:46:22.504Z,21.77
2017-11-10T15:48:25.809Z,21.77
2017-11-10T15:50:29.174Z,21.77
2017-11-10T15:52:32.454Z,21.77
2017-11-10T15:54:35.778Z,21.76
2017-11-10T15:56:39.090Z,21.76
2017-11-10T15:58:42.486Z,21.76
2017-11-10T16:00:45.797Z,21.75
2017-11-10T16:02:49.097Z,21.75
2017-11-10T16:04:52.440Z,21.75
2017-11-10T16:06:55.745Z,21.75
2017-11-10T16:08:59.128Z,21.74
2017-11-10T16:11:02.423Z,21.74
2017-11-10T16:13:05.738Z,21.74
2017-11-10T16:15:09.101Z,21.75
2017-11-10T16:17:12.393Z,21.75
2017-11-10T16:19:15.714Z,21.76
2017-11-10T16:21:19.178Z,21.76
2017-11-10T16:23:22.467Z,21.78
2017-11-10T16:25:25.852Z,21.79
2017-11-10T16:27:29.225Z,21.81
2017-11-10T16:29:32.599Z,21.82
2017-11-10T16:31:35.911Z,21.84
2017-11-10T16:33:39.198Z,21.85
2017-11-10T16:35:42.494Z,21.86
2017-11-10T16:37:45.805Z,21.88
2017-11-10T16:39:49.095Z,21.89
2017-11-10T16:41:52.385Z,21.90
2017-11-10T16:43:55.709Z,21.91
2017-11-10T16:45:59.002Z,21.92
2017-11-10T16:48:02.310Z,21.93
2017-11-10T16:50:05.643Z,21.94
2017-11-10T16:52:08.926Z,21.95
2017-11-10T16:54:12.230Z,21.96
2017-11-10T16:56:15.637Z,21.97
2017-11-10T16:58:19.014Z,21.98
2017-11-10T17:00:22.302Z,21.99
2017-11-10T17:02:25.617Z,22.00
2017-11-10T17:04:28.977Z,22.00
2017-11-10T17:06:32.368Z,22.02
2017-11-10T17:08:35.701Z,22.02
2017-11-10T17:10:38.997Z,22.03
2017-11-10T17:12:42.356Z,22.03
2017-11-10T17:14:45.682Z,22.04
2017-11-10T17:16:48.971Z,22.06
2017-11-10T17:18:52.273Z,22.06
2017-11-10T17:20:55.620Z,22.07
2017-11-10T17:22:58.917Z,22.07
2017-11-10T17:25:02.219Z,22.08
2017-11-10T17:27:05.523Z,22.09
2017-11-10T17:29:08.913Z,22.09
2017-11-10T17:31:12.246Z,22.10
2017-11-10T17:33:15.647Z,22.10
2017-11-10T17:35:20.022Z,22.11
2017-11-10T17:37:23.417Z,22.11
2017-11-10T17:39:26.729Z,22.12
2017-11-10T17:41:30.083Z,22.13
2017-11-10T17:43:33.385Z,22.14
2017-11-10T17:45:36.756Z,22.14
2017-11-10T17:47:40.229Z,22.15
2017-11-10T17:49:43.521Z,22.15
2017-11-10T17:51:46.846Z,22.15
2017-11-10T17:53:50.168Z,22.15
2017-11-10T17:55:53.466Z,22.16
2017-11-10T17:57:56.786Z,22.16
2017-11-10T18:00:00.145Z,22.17
2017-11-10T18:02:03.457Z,22.17
2017-11-10T18:04:06.826Z,22.18
2017-11-10T18:06:10.218Z,22.18
2017-11-10T18:08:13.597Z,22.19
2017-11-10T18:10:16.965Z,22.19
2017-11-10T18:12:20.298Z,22.20
2017-11-10T18:14:23.677Z,22.20
2017-11-10T18:16:27.133Z,22.20
2017-11-10T18:18:30.424Z,22.19
2017-11-10T18:20:33.748Z,22.18
2017-11-10T18:22:37.107Z,22.17
2017-11-10T18:24:40.377Z,22.17
2017-11-10T18:26:43.678Z,22.16
2017-11-10T18:28:47.092Z,22.15
2017-11-10T18:30:50.577Z,22.14
2017-11-10T18:32:53.902Z,22.14
2017-11-10T18:34:57.214Z,22.13
2017-11-10T18:37:00.651Z,22.12
2017-11-10T18:39:04.076Z,22.11
2017-11-10T18:41:07.423Z,22.10
2017-11-10T18:43:10.719Z,22.09
2017-11-10T18:45:14.030Z,22.08
2017-11-10T18:47:17.349Z,22.07
2017-11-10T18:49:26.415Z,22.05
2017-11-10T18:51:29.818Z,22.04
2017-11-10T18:53:38.797Z,22.03
2017-11-10T18:55:47.777Z,22.02
2017-11-10T18:57:51.190Z,22.02
2017-11-10T18:59:54.513Z,22.00
2017-11-10T19:01:57.814Z,21.99
2017-11-10T19:04:01.200Z,21.99
2017-11-10T19:06:04.614Z,21.98
2017-11-10T19:08:07.914Z,21.97
2017-11-10T19:10:11.475Z,21.97
2017-11-10T19:12:14.923Z,21.96
2017-11-10T19:14:23.800Z,21.94
2017-11-10T19:16:32.493Z,21.94
2017-11-10T19:18:35.815Z,21.93
2017-11-10T19:20:39.283Z,21.93
2017-11-10T19:22:42.582Z,21.93
2017-11-10T19:24:45.962Z,21.91
2017-11-10T19:26:49.301Z,21.91
2017-11-10T19:28:52.611Z,21.91
2017-11-10T19:30:55.996Z,21.90
2017-11-10T19:32:59.285Z,21.89
2017-11-10T19:35:02.730Z,21.88
2017-11-10T19:37:06.060Z,21.87
2017-11-10T19:39:09.363Z,21.87
2017-11-10T19:41:12.658Z,21.86
2017-11-10T19:43:16.057Z,21.86
2017-11-10T19:45:19.506Z,21.85
2017-11-10T19:47:22.851Z,21.84
2017-11-10T19:49:26.592Z,21.84
2017-11-10T19:51:30.085Z,21.83
2017-11-10T19:53:33.380Z,21.83
2017-11-10T19:55:36.724Z,21.82
2017-11-10T19:57:40.003Z,21.82
2017-11-10T19:59:43.385Z,21.81
2017-11-10T20:01:46.702Z,21.81
2017-11-10T20:03:50.831Z,21.80
2017-11-10T20:05:54.232Z,21.79
2017-11-10T20:07:57.545Z,21.79
2017-11-10T20:10:00.852Z,21.78
2017-11-10T20:12:04.252Z,21.78
2017-11-10T20:14:07.573Z,21.78
2017-11-10T20:16:10.872Z,21.77
2017-11-10T20:18:14.227Z,21.78
2017-11-10T20:20:17.555Z,21.77
2017-11-10T20:22:20.905Z,21.77
2017-11-10T20:24:24.195Z,21.76
2017-11-10T20:26:27.514Z,21.76
2017-11-10T20:28:30.847Z,21.75
2017-11-10T20:30:34.149Z,21.75
2017-11-10T20:32:37.544Z,21.74
2017-11-10T20:34:40.882Z,21.74
2017-11-10T20:36:44.173Z,21.74
2017-11-10T20:38:47.690Z,21.73
2017-11-10T20:40:50.992Z,21.73
2017-11-10T20:42:54.288Z,21.72
2017-11-10T20:44:57.628Z,21.72
2017-11-10T20:47:00.995Z,21.72
2017-11-10T20:49:04.574Z,21.72
2017-11-10T20:51:07.958Z,21.72
2017-11-10T20:53:11.240Z,21.72
2017-11-10T20:55:14.569Z,21.71
2017-11-10T20:57:17.917Z,21.70
2017-11-10T20:59:22.712Z,21.70
2017-11-10T21:01:26.022Z,21.70
2017-11-10T21:03:29.348Z,21.69
2017-11-10T21:05:32.746Z,21.69
2017-11-10T21:07:36.033Z,21.69
2017-11-10T21:09:39.384Z,21.69
2017-11-10T21:11:42.700Z,21.69
2017-11-10T21:13:46.002Z,21.69
2017-11-10T21:15:49.327Z,21.68
2017-11-10T21:17:52.626Z,21.68
2017-11-10T21:19:55.928Z,21.68
2017-11-10T21:21:59.249Z,21.68
2017-11-10T21:24:02.549Z,21.68
2017-11-10T21:26:05.938Z,21.67
2017-11-10T21:28:09.328Z,21.67
2017-11-10T21:30:13.621Z,21.67
2017-11-10T21:32:16.936Z,21.67
2017-11-10T21:34:20.474Z,21.67
2017-11-10T21:36:23.791Z,21.67
2017-11-10T21:38:27.086Z,21.66
2017-11-10T21:40:30.403Z,21.66
2017-11-10T21:42:33.786Z,21.65
2017-11-10T21:44:37.086Z,21.66
2017-11-10T21:46:40.427Z,21.66
2017-11-10T21:48:43.723Z,21.66
2017-11-10T21:50:47.124Z,21.66
2017-11-10T21:52:50.449Z,21.65
2017-11-10T21:54:53.802Z,21.66
2017-11-10T21:56:57.111Z,21.66
2017-11-10T21:59:00.479Z,21.65
2017-11-10T22:01:03.780Z,21.65
2017-11-10T22:03:07.111Z,21.64
2017-11-10T22:05:10.469Z,21.64
2017-11-10T22:07:13.741Z,21.64
2017-11-10T22:09:17.034Z,21.63
2017-11-10T22:11:20.352Z,21.64
2017-11-10T22:13:23.641Z,21.63
2017-11-10T22:15:27.004Z,21.63
2017-11-10T22:17:30.373Z,21.64
2017-11-10T22:19:33.673Z,21.63
2017-11-10T22:21:36.969Z,21.63
2017-11-10T22:23:40.325Z,21.63
2017-11-10T22:25:43.684Z,21.63
2017-11-10T22:27:47.083Z,21.63
2017-11-10T22:29:50.405Z,21.63
2017-11-10T22:31:53.705Z,21.63
2017-11-10T22:33:56.996Z,21.63
2017-11-10T22:36:00.427Z,21.63
2017-11-10T22:38:03.737Z,21.62
2017-11-10T22:40:07.028Z,21.62
2017-11-10T22:42:10.356Z,21.62
2017-11-10T22:44:13.647Z,21.62
2017-11-10T22:46:16.936Z,21.62
2017-11-10T22:48:20.288Z,21.62
2017-11-10T22:50:23.581Z,21.61
2017-11-10T22:52:26.899Z,21.61
2017-11-10T22:54:30.314Z,21.61
2017-11-10T22:56:33.581Z,21.61
2017-11-10T22:58:36.890Z,21.61
2017-11-10T23:00:40.324Z,21.61
2017-11-10T23:02:43.661Z,21.60
2017-11-10T23:04:47.194Z,21.60
2017-11-10T23:06:50.512Z,21.60
2017-11-10T23:08:53.875Z,21.60
2017-11-10T23:10:57.172Z,21.59
2017-11-10T23:13:00.481Z,21.59
2017-11-10T23:15:03.791Z,21.59
2017-11-10T23:17:07.080Z,21.60
2017-11-10T23:19:10.417Z,21.59
2017-11-10T23:21:13.705Z,21.59
2017-11-10T23:23:17.009Z,21.59
2017-11-10T23:25:20.356Z,21.59
2017-11-10T23:27:23.654Z,21.59
2017-11-10T23:29:26.991Z,21.58
2017-11-10T23:31:30.338Z,21.58
2017-11-10T23:33:33.626Z,21.58
2017-11-10T23:35:36.924Z,21.58
2017-11-10T23:37:40.330Z,21.57
2017-11-10T23:39:43.640Z,21.57
2017-11-10T23:41:46.946Z,21.57
2017-11-10T23:43:50.312Z,21.57
2017-11-10T23:45:53.602Z,21.57
2017-11-10T23:47:56.899Z,21.57
2017-11-10T23:50:00.245Z,21.57
2017-11-10T23:52:03.542Z,21.56
2017-11-10T23:54:06.865Z,21.56
2017-11-10T23:56:10.194Z,21.56
2017-11-10T23:58:13.493Z,21.56
